createdAt,value
2018-11-29T00:01:01.354Z,65.37
2018-11-29T00:03:31.111Z,69.72
2018-11-29T00:05:59.955Z,67.55
2018-11-29T00:08:28.947Z,74.37
2018-11-29T00:10:56.984Z,61.20
2018-11-29T00:13:27.030Z,57.43
2018-11-29T00:15:55.080Z,55.83
2018-11-29T00:18:23.883Z,63.30
2018-11-29T00:20:53.403Z,63.90
2018-11-29T00:23:22.750Z,56.50
2018-11-29T00:25:52.270Z,64.65
2018-11-29T00:28:21.339Z,61.13
2018-11-29T00:30:50.072Z,56.98
2018-11-29T00:33:20.274Z,60.15
2018-11-29T00:35:48.383Z,59.83
2018-11-29T00:38:18.119Z,62.27
2018-11-29T00:40:47.794Z,67.47
2018-11-29T00:43:16.828Z,65.90
2018-11-29T00:45:44.923Z,57.40
2018-11-29T00:48:12.944Z,61.75
2018-11-29T00:50:41.215Z,66.82
2018-11-29T00:53:09.462Z,67.50
2018-11-29T00:55:39.046Z,75.20
2018-11-29T00:58:08.290Z,72.05
2018-11-29T01:00:37.632Z,74.50
2018-11-29T01:03:06.540Z,65.12
2018-11-29T01:05:35.291Z,64.82
2018-11-29T01:08:03.440Z,63.83
2018-11-29T01:10:32.951Z,74.90
2018-11-29T01:13:01.168Z,81.28
2018-11-29T01:15:30.807Z,77.50
2018-11-29T01:18:00.352Z,76.05
2018-11-29T01:20:29.394Z,76.00
2018-11-29T01:22:58.001Z,71.95
2018-11-29T01:25:27.466Z,56.73
2018-11-29T01:27:55.691Z,62.33
2018-11-29T01:30:24.791Z,67.95
2018-11-29T01:32:52.934Z,65.45
2018-11-29T01:35:21.063Z,81.00
2018-11-29T01:37:49.551Z,61.73
2018-11-29T01:40:21.192Z,70.83
2018-11-29T01:42:57.182Z,75.62
2018-11-29T01:45:25.688Z,70.25
2018-11-29T01:47:54.657Z,74.12
2018-11-29T01:50:23.811Z,66.28
2018-11-29T01:52:52.054Z,70.52
2018-11-29T01:55:20.747Z,73.30
2018-11-29T01:57:50.300Z,75.65
2018-11-29T02:00:18.655Z,68.50
2018-11-29T02:02:48.844Z,77.65
2018-11-29T02:05:17.663Z,75.90
2018-11-29T02:07:46.867Z,71.07
2018-11-29T02:10:21.838Z,71.57
2018-11-29T02:12:51.958Z,86.35
2018-11-29T02:15:20.141Z,82.62
2018-11-29T02:17:49.409Z,81.47
2018-11-29T02:20:18.821Z,78.78
2018-11-29T02:22:47.581Z,78.47
2018-11-29T02:25:15.842Z,68.42
2018-11-29T02:27:44.642Z,75.80
2018-11-29T02:30:14.896Z,77.95
2018-11-29T02:32:44.607Z,67.17
2018-11-29T02:35:13.116Z,69.03
2018-11-29T02:37:41.929Z,73.07
2018-11-29T02:40:12.121Z,66.25
2018-11-29T02:42:40.739Z,63.75
2018-11-29T02:45:16.142Z,69.95
2018-11-29T02:47:44.355Z,80.72
2018-11-29T02:50:13.247Z,68.83
2018-11-29T02:52:43.007Z,72.80
2018-11-29T02:55:11.633Z,64.75
2018-11-29T02:57:40.205Z,62.83
2018-11-29T03:00:16.590Z,68.40
2018-11-29T03:02:45.276Z,81.95
2018-11-29T03:05:14.960Z,69.17
2018-11-29T03:07:43.720Z,73.92
2018-11-29T03:10:14.105Z,86.67
2018-11-29T03:12:43.292Z,88.95
2018-11-29T03:15:14.694Z,80.57
2018-11-29T03:17:43.446Z,79.72
2018-11-29T03:20:13.015Z,83.05
2018-11-29T03:22:42.851Z,98.20
2018-11-29T03:25:13.437Z,67.90
2018-11-29T03:27:41.598Z,73.57
2018-11-29T03:30:15.865Z,68.17
2018-11-29T03:32:44.677Z,96.70
2018-11-29T03:35:14.676Z,85.15
2018-11-29T03:37:43.396Z,86.08
2018-11-29T03:40:12.647Z,74.82
2018-11-29T03:42:42.158Z,90.42
2018-11-29T03:45:11.232Z,77.50
2018-11-29T03:47:40.774Z,86.53
2018-11-29T03:50:12.123Z,81.42
2018-11-29T03:52:41.108Z,85.57
2018-11-29T03:55:10.353Z,83.37
2018-11-29T03:57:39.824Z,87.78
2018-11-29T04:00:16.741Z,89.28
2018-11-29T04:02:46.335Z,88.92
2018-11-29T04:05:15.248Z,85.42
2018-11-29T04:07:43.636Z,83.58
2018-11-29T04:10:12.766Z,87.90
2018-11-29T04:12:41.672Z,90.60
2018-11-29T04:15:12.920Z,81.85
2018-11-29T04:17:41.435Z,86.50
2018-11-29T04:20:11.806Z,81.45
2018-11-29T04:22:39.956Z,87.72
2018-11-29T04:25:10.206Z,83.25
2018-11-29T04:27:38.898Z,79.67
2018-11-29T04:30:10.475Z,79.92
2018-11-29T04:32:39.455Z,72.35
2018-11-29T04:35:09.171Z,98.87
2018-11-29T04:37:37.708Z,93.12
2018-11-29T04:40:08.793Z,89.67
2018-11-29T04:42:38.269Z,81.05
2018-11-29T04:45:09.765Z,79.97
2018-11-29T04:47:37.880Z,83.30
2018-11-29T04:50:06.373Z,82.33
2018-11-29T04:52:35.567Z,74.80
2018-11-29T04:55:03.886Z,89.37
2018-11-29T04:57:32.244Z,79.90
2018-11-29T05:00:02.449Z,86.63
2018-11-29T05:02:30.552Z,84.85
2018-11-29T05:04:59.509Z,83.20
2018-11-29T05:07:28.501Z,87.50
2018-11-29T05:09:58.434Z,69.03
2018-11-29T05:12:26.467Z,79.75
2018-11-29T05:14:55.411Z,78.90
2018-11-29T05:17:24.815Z,81.87
2018-11-29T05:19:53.839Z,79.10
2018-11-29T05:22:23.349Z,79.82
2018-11-29T05:24:53.571Z,84.25
2018-11-29T05:27:22.485Z,96.70
2018-11-29T05:29:51.458Z,84.65
2018-11-29T05:32:20.347Z,86.45
2018-11-29T05:34:49.141Z,82.25
2018-11-29T05:37:17.398Z,69.40
2018-11-29T05:39:45.408Z,84.32
2018-11-29T05:42:15.393Z,93.22
2018-11-29T05:44:44.461Z,93.20
2018-11-29T05:47:13.855Z,88.45
2018-11-29T05:49:43.880Z,85.25
2018-11-29T05:52:12.802Z,94.15
2018-11-29T05:54:41.003Z,90.00
2018-11-29T05:57:09.425Z,86.00
2018-11-29T05:59:38.978Z,91.57
2018-11-29T06:02:08.440Z,79.62
2018-11-29T06:04:37.965Z,89.70
2018-11-29T06:07:07.013Z,90.25
2018-11-29T06:09:35.356Z,86.92
2018-11-29T06:12:03.613Z,89.52
2018-11-29T06:14:35.329Z,86.55
2018-11-29T06:17:04.844Z,77.20
2018-11-29T06:19:34.311Z,103.47
2018-11-29T06:22:03.142Z,93.78
2018-11-29T06:24:31.762Z,83.90
2018-11-29T06:26:59.884Z,92.35
2018-11-29T06:29:31.921Z,92.45
2018-11-29T06:32:01.011Z,96.02
2018-11-29T06:34:30.086Z,84.42
2018-11-29T06:36:58.774Z,86.15
2018-11-29T06:39:28.128Z,83.17
2018-11-29T06:41:56.290Z,92.02
2018-11-29T06:44:26.466Z,94.60
2018-11-29T06:46:54.647Z,90.30
2018-11-29T06:49:23.324Z,88.82
2018-11-29T06:51:52.183Z,92.70
2018-11-29T06:54:20.702Z,96.05
2018-11-29T06:56:50.691Z,84.00
2018-11-29T06:59:21.066Z,90.87
2018-11-29T07:01:51.092Z,96.08
2018-11-29T07:04:21.271Z,100.62
2018-11-29T07:06:51.385Z,86.97
2018-11-29T07:09:21.032Z,93.82
2018-11-29T07:11:50.117Z,94.75
2018-11-29T07:14:19.257Z,89.70
2018-11-29T07:16:48.468Z,93.78
2018-11-29T07:19:17.247Z,86.92
2018-11-29T07:21:53.211Z,88.10
2018-11-29T07:24:23.324Z,91.78
2018-11-29T07:26:52.979Z,98.78
2018-11-29T07:29:29.559Z,98.37
2018-11-29T07:31:57.810Z,89.72
2018-11-29T07:34:26.035Z,98.10
2018-11-29T07:36:54.570Z,99.83
2018-11-29T07:39:23.959Z,86.35
2018-11-29T07:41:52.014Z,91.75
2018-11-29T07:44:20.856Z,83.65
2018-11-29T07:46:49.591Z,92.92
2018-11-29T07:49:18.504Z,96.00
2018-11-29T07:51:46.685Z,93.50
2018-11-29T07:54:15.904Z,85.83
2018-11-29T07:56:46.222Z,90.38
2018-11-29T07:59:18.599Z,103.10
2018-11-29T08:01:47.348Z,99.03
2018-11-29T08:04:16.799Z,85.05
2018-11-29T08:06:45.169Z,98.97
2018-11-29T08:09:14.755Z,85.83
2018-11-29T08:11:43.405Z,93.33
2018-11-29T08:14:12.839Z,91.45
2018-11-29T08:16:41.837Z,95.67
2018-11-29T08:19:10.450Z,96.42
2018-11-29T08:21:38.862Z,100.80
2018-11-29T08:24:07.679Z,107.58
2018-11-29T08:26:37.114Z,88.15
2018-11-29T08:29:05.937Z,103.95
2018-11-29T08:31:34.466Z,99.25
2018-11-29T08:34:03.939Z,82.00
2018-11-29T08:36:31.983Z,84.75
2018-11-29T08:39:00.781Z,73.62
2018-11-29T08:41:29.725Z,83.82
2018-11-29T08:43:58.822Z,74.77
2018-11-29T08:46:28.549Z,69.03
2018-11-29T08:48:56.657Z,72.67
2018-11-29T08:51:25.575Z,73.07
2018-11-29T08:53:53.937Z,66.17
2018-11-29T08:56:23.657Z,113.10
2018-11-29T08:58:54.142Z,72.45
2018-11-29T09:01:23.612Z,84.70
2018-11-29T09:03:52.217Z,60.03
2018-11-29T09:06:21.969Z,63.95
2018-11-29T09:08:51.540Z,70.62
2018-11-29T09:11:20.161Z,52.88
2018-11-29T09:13:48.973Z,54.10
2018-11-29T09:16:18.139Z,70.62
2018-11-29T09:18:46.923Z,43.45
2018-11-29T09:21:15.433Z,42.30
2018-11-29T09:23:43.912Z,45.75
2018-11-29T09:26:12.231Z,43.02
2018-11-29T09:28:40.399Z,44.23
2018-11-29T09:31:09.467Z,42.05
2018-11-29T09:33:41.463Z,44.10
2018-11-29T09:36:11.181Z,51.55
2018-11-29T09:38:39.920Z,38.88
2018-11-29T09:41:08.394Z,54.33
2018-11-29T09:43:37.867Z,36.63
2018-11-29T09:46:07.272Z,47.50
2018-11-29T09:48:38.266Z,38.98
2018-11-29T09:51:07.298Z,42.73
2018-11-29T09:53:36.954Z,42.30
2018-11-29T09:56:07.333Z,41.50
2018-11-29T09:58:36.391Z,43.48
2018-11-29T10:01:05.174Z,45.03
2018-11-29T10:03:34.676Z,62.25
2018-11-29T10:06:04.054Z,47.67
2018-11-29T10:08:33.274Z,38.58
2018-11-29T10:11:03.826Z,52.13
2018-11-29T10:13:33.950Z,53.65
2018-11-29T10:16:02.617Z,48.20
2018-11-29T10:18:32.147Z,44.73
2018-11-29T10:21:00.931Z,52.15
2018-11-29T10:23:30.379Z,50.43
2018-11-29T10:26:00.075Z,46.65
2018-11-29T10:28:29.526Z,44.53
2018-11-29T10:31:00.370Z,47.90
2018-11-29T10:33:29.075Z,42.15
2018-11-29T10:36:00.006Z,54.77
2018-11-29T10:38:32.173Z,37.15
2018-11-29T10:41:03.619Z,43.00
2018-11-29T10:43:33.928Z,39.15
2018-11-29T10:46:04.061Z,42.17
2018-11-29T10:48:33.540Z,40.33
2018-11-29T10:51:03.428Z,38.83
2018-11-29T10:53:37.018Z,56.23
2018-11-29T10:56:00.288Z,36.50
2018-11-29T10:58:29.481Z,44.30
2018-11-29T11:01:05.784Z,40.97
2018-11-29T11:03:34.594Z,40.83
2018-11-29T11:06:03.830Z,34.83
2018-11-29T11:08:32.240Z,42.93
2018-11-29T11:11:08.945Z,36.70
2018-11-29T11:13:38.422Z,43.83
2018-11-29T11:16:07.475Z,42.27
2018-11-29T11:18:37.427Z,36.35
2018-11-29T11:21:06.948Z,56.60
2018-11-29T11:23:36.586Z,45.10
2018-11-29T11:26:06.047Z,42.23
2018-11-29T11:28:35.195Z,50.80
2018-11-29T11:31:07.568Z,47.15
2018-11-29T11:33:37.155Z,43.33
2018-11-29T11:36:07.989Z,46.60
2018-11-29T11:38:36.576Z,48.40
2018-11-29T11:41:09.506Z,46.10
2018-11-29T11:43:39.511Z,48.20
2018-11-29T11:46:09.255Z,46.93
2018-11-29T11:48:39.790Z,46.03
2018-11-29T11:51:09.021Z,46.93
2018-11-29T11:53:38.565Z,54.67
2018-11-29T11:56:08.983Z,50.63
2018-11-29T11:58:39.489Z,49.87
2018-11-29T12:01:11.022Z,59.03
2018-11-29T12:03:42.472Z,49.53
2018-11-29T12:06:11.884Z,52.30
2018-11-29T12:08:47.216Z,56.02
2018-11-29T12:11:15.383Z,57.03
2018-11-29T12:13:50.130Z,58.47
2018-11-29T12:16:18.563Z,65.03
2018-11-29T12:18:51.286Z,54.30
2018-11-29T12:21:22.810Z,69.40
2018-11-29T12:23:51.718Z,50.53
2018-11-29T12:26:21.264Z,61.20
2018-11-29T12:28:56.266Z,81.83
2018-11-29T12:31:29.149Z,51.27
2018-11-29T12:34:02.368Z,53.57
2018-11-29T12:36:33.478Z,47.93
2018-11-29T12:39:03.228Z,47.80
2018-11-29T12:41:33.468Z,44.33
2018-11-29T12:44:04.040Z,41.10
2018-11-29T12:46:34.812Z,69.53
2018-11-29T12:49:05.603Z,52.00
2018-11-29T12:51:35.314Z,45.10
2018-11-29T12:54:06.281Z,46.70
2018-11-29T12:56:35.367Z,66.27
2018-11-29T12:59:05.078Z,41.23
2018-11-29T13:01:36.004Z,59.13
2018-11-29T13:04:08.407Z,52.90
2018-11-29T13:06:37.507Z,34.77
2018-11-29T13:09:08.837Z,36.20
2018-11-29T13:11:38.223Z,38.13
2018-11-29T13:14:08.159Z,34.37
2018-11-29T13:16:37.715Z,38.13
2018-11-29T13:19:07.562Z,32.87
2018-11-29T13:21:35.949Z,35.47
2018-11-29T13:24:05.770Z,35.43
2018-11-29T13:26:36.499Z,38.37
2018-11-29T13:29:06.298Z,35.27
2018-11-29T13:31:35.060Z,32.03
2018-11-29T13:34:04.794Z,35.60
2018-11-29T13:36:37.053Z,46.77
2018-11-29T13:39:09.607Z,40.70
2018-11-29T13:41:38.795Z,38.03
2018-11-29T13:44:09.493Z,36.03
2018-11-29T13:49:09.917Z,36.07
2018-11-29T13:51:38.951Z,44.83
2018-11-29T13:54:08.333Z,45.00
2018-11-29T13:56:38.605Z,37.83
2018-11-29T13:59:07.556Z,49.07
2018-11-29T14:01:36.193Z,52.83
2018-11-29T14:04:05.138Z,70.40
2018-11-29T14:06:35.549Z,45.43
2018-11-29T14:09:06.182Z,73.13
2018-11-29T14:11:35.765Z,37.67
2018-11-29T14:14:08.047Z,35.23
2018-11-29T14:16:36.131Z,51.00
2018-11-29T14:19:05.176Z,47.90
2018-11-29T14:21:35.086Z,66.80
2018-11-29T14:24:04.828Z,49.18
2018-11-29T14:26:34.023Z,60.05
2018-11-29T14:29:07.852Z,52.53
2018-11-29T14:31:36.923Z,39.70
2018-11-29T14:34:06.021Z,39.67
2018-11-29T14:36:34.207Z,41.92
2018-11-29T14:39:03.947Z,30.88
2018-11-29T14:41:32.056Z,33.28
2018-11-29T14:44:01.491Z,37.83
2018-11-29T14:46:30.470Z,51.13
2018-11-29T14:48:58.648Z,38.23
2018-11-29T14:51:27.679Z,42.48
2018-11-29T14:53:57.145Z,34.67
2018-11-29T14:56:26.433Z,42.33
2018-11-29T14:58:55.886Z,35.98
2018-11-29T15:01:27.095Z,35.98
2018-11-29T15:03:57.824Z,31.48
2018-11-29T15:06:27.799Z,28.52
2018-11-29T15:08:56.811Z,31.42
2018-11-29T15:11:29.362Z,34.25
2018-11-29T15:13:57.487Z,39.50
2018-11-29T15:16:25.661Z,36.00
2018-11-29T15:18:55.673Z,33.00
2018-11-29T15:21:25.794Z,41.20
2018-11-29T15:23:55.583Z,42.78
2018-11-29T15:26:23.787Z,45.33
2018-11-29T15:28:52.980Z,38.92
2018-11-29T15:31:33.333Z,46.33
2018-11-29T15:34:02.927Z,44.90
2018-11-29T15:36:32.697Z,48.42
2018-11-29T15:39:04.086Z,55.45
2018-11-29T15:41:36.092Z,30.82
2018-11-29T15:44:05.721Z,40.25
2018-11-29T15:46:38.280Z,59.45
2018-11-29T15:49:07.105Z,49.85
2018-11-29T15:51:35.575Z,40.95
2018-11-29T15:54:04.933Z,36.60
2018-11-29T15:56:34.125Z,27.65
2018-11-29T15:59:04.916Z,34.88
2018-11-29T16:01:34.435Z,34.75
2018-11-29T16:04:08.978Z,24.98
2018-11-29T16:06:37.875Z,39.27
2018-11-29T16:09:10.143Z,32.55
2018-11-29T16:11:39.132Z,32.15
2018-11-29T16:14:09.124Z,26.55
2018-11-29T16:16:39.682Z,29.40
2018-11-29T16:19:09.527Z,30.60
2018-11-29T16:21:39.972Z,35.68
2018-11-29T16:24:10.313Z,39.90
2018-11-29T16:26:40.876Z,28.73
2018-11-29T16:29:11.410Z,39.75
2018-11-29T16:31:45.605Z,34.35
2018-11-29T16:34:16.870Z,25.40
2018-11-29T16:36:47.759Z,32.28
2018-11-29T16:39:18.437Z,25.55
2018-11-29T16:41:49.080Z,24.30
2018-11-29T16:44:20.825Z,28.07
2018-11-29T16:46:50.213Z,40.88
2018-11-29T16:49:20.040Z,26.57
2018-11-29T16:51:53.362Z,26.82
2018-11-29T16:54:22.114Z,42.60
2018-11-29T16:56:53.809Z,44.48
2018-11-29T16:59:22.550Z,26.17
2018-11-29T17:01:50.835Z,24.20
2018-11-29T17:04:26.491Z,24.25
2018-11-29T17:06:56.569Z,26.27
2018-11-29T17:09:31.058Z,32.42
2018-11-29T17:12:01.506Z,25.08
2018-11-29T17:14:33.422Z,47.35
2018-11-29T17:17:04.767Z,34.50
2018-11-29T17:19:35.909Z,36.68
2018-11-29T17:22:04.753Z,31.65
2018-11-29T17:24:36.963Z,29.12
2018-11-29T17:27:06.857Z,28.75
2018-11-29T17:29:35.364Z,66.30
2018-11-29T17:32:05.773Z,83.62
2018-11-29T17:34:36.314Z,29.42
2018-11-29T17:37:05.414Z,50.58
2018-11-29T17:39:40.512Z,27.87
2018-11-29T17:42:15.890Z,31.25
2018-11-29T17:44:48.366Z,30.30
2018-11-29T17:47:21.241Z,30.35
2018-11-29T17:52:35.695Z,26.55
2018-11-29T17:55:05.330Z,22.00
2018-11-29T17:57:39.913Z,31.40
2018-11-29T18:00:23.896Z,29.60
2018-11-29T18:02:56.905Z,26.80
2018-11-29T18:05:31.895Z,31.10
2018-11-29T18:08:03.441Z,31.20
2018-11-29T18:10:34.813Z,26.00
2018-11-29T18:13:15.722Z,30.12
2018-11-29T18:15:44.718Z,34.25
2018-11-29T18:18:19.918Z,53.50
2018-11-29T18:20:50.490Z,50.83
2018-11-29T18:23:22.830Z,29.80
2018-11-29T18:25:53.347Z,37.33
2018-11-29T18:28:28.893Z,43.00
2018-11-29T18:31:00.154Z,32.83
2018-11-29T18:33:30.236Z,29.98
2018-11-29T18:36:06.495Z,37.55
2018-11-29T18:38:35.653Z,29.65
2018-11-29T18:41:08.323Z,73.70
2018-11-29T18:43:38.648Z,31.05
2018-11-29T18:46:17.112Z,31.30
2018-11-29T18:48:45.789Z,41.88
2018-11-29T18:51:15.575Z,29.05
2018-11-29T18:53:46.350Z,49.40
2018-11-29T18:56:17.415Z,51.77
2018-11-29T18:58:48.137Z,104.97
2018-11-29T19:01:18.431Z,85.12
2018-11-29T19:03:48.792Z,51.63
2018-11-29T19:06:23.651Z,42.73
2018-11-29T19:08:53.541Z,49.95
2018-11-29T19:11:29.413Z,40.48
2018-11-29T19:14:04.540Z,39.20
2018-11-29T19:19:35.707Z,32.38
2018-11-29T19:22:08.262Z,36.90
2018-11-29T19:24:40.943Z,32.35
2018-11-29T19:27:23.454Z,32.28
2018-11-29T19:29:56.238Z,37.67
2018-11-29T19:35:21.733Z,77.40
2018-11-29T19:37:59.266Z,85.12
2018-11-29T19:40:34.952Z,36.17
2018-11-29T19:43:14.524Z,47.98
2018-11-29T19:45:50.207Z,57.78
2018-11-29T19:48:21.226Z,54.15
2018-11-29T19:50:52.403Z,79.67
2018-11-29T19:53:23.873Z,57.50
2018-11-29T19:55:58.364Z,39.35
2018-11-29T19:58:29.406Z,45.75
2018-11-29T20:01:13.141Z,45.33
2018-11-29T20:03:48.705Z,42.95
2018-11-29T20:06:34.974Z,46.20
2018-11-29T20:09:13.530Z,45.40
2018-11-29T20:11:43.385Z,41.98
2018-11-29T20:14:14.915Z,43.85
2018-11-29T20:16:55.528Z,39.20
2018-11-29T20:19:29.983Z,43.17
2018-11-29T20:22:05.618Z,40.90
2018-11-29T20:24:41.770Z,39.20
2018-11-29T20:27:15.778Z,36.85
2018-11-29T20:29:48.766Z,34.27
2018-11-29T20:32:37.704Z,38.17
2018-11-29T20:35:14.144Z,40.70
2018-11-29T20:37:44.379Z,42.55
2018-11-29T20:40:17.587Z,40.28
2018-11-29T20:45:26.930Z,38.67
2018-11-29T20:47:59.380Z,52.03
2018-11-29T20:50:31.124Z,45.48
2018-11-29T20:53:01.925Z,58.75
2018-11-29T20:55:38.621Z,49.80
2018-11-29T20:58:15.449Z,46.95
2018-11-29T21:00:46.821Z,41.85
2018-11-29T21:03:20.000Z,42.45
2018-11-29T21:05:55.148Z,43.63
2018-11-29T21:11:12.180Z,34.83
2018-11-29T21:13:43.866Z,39.78
2018-11-29T21:16:16.392Z,61.73
2018-11-29T21:18:44.994Z,40.35
2018-11-29T21:21:15.186Z,41.92
2018-11-29T21:23:43.909Z,42.33
2018-11-29T21:26:14.131Z,38.88
2018-11-29T21:28:48.532Z,39.42
2018-11-29T21:31:20.499Z,44.50
2018-11-29T21:33:52.977Z,41.45
2018-11-29T21:36:25.660Z,43.83
2018-11-29T21:38:54.038Z,51.00
2018-11-29T21:41:23.485Z,55.38
2018-11-29T21:43:52.437Z,61.42
2018-11-29T21:46:30.679Z,41.45
2018-11-29T21:49:01.151Z,49.18
2018-11-29T21:51:32.357Z,49.30
2018-11-29T21:54:01.330Z,48.23
2018-11-29T21:56:29.686Z,45.80
2018-11-29T21:58:59.399Z,49.48
2018-11-29T22:01:32.311Z,48.80
2018-11-29T22:04:02.831Z,41.80
2018-11-29T22:06:32.464Z,45.73
2018-11-29T22:09:03.264Z,48.68
2018-11-29T22:11:34.719Z,45.60
2018-11-29T22:14:04.805Z,54.03
2018-11-29T22:16:33.717Z,44.05
2018-11-29T22:19:02.598Z,44.88
2018-11-29T22:21:31.737Z,46.73
2018-11-29T22:24:02.758Z,45.25
2018-11-29T22:26:33.391Z,44.00
2018-11-29T22:29:01.750Z,50.45
2018-11-29T22:31:30.302Z,48.50
2018-11-29T22:34:00.517Z,49.98
2018-11-29T22:36:30.087Z,47.38
2018-11-29T22:38:59.030Z,47.62
2018-11-29T22:41:27.573Z,47.38
2018-11-29T22:43:55.851Z,51.15
2018-11-29T22:46:25.359Z,43.58
2018-11-29T22:48:54.421Z,49.75
2018-11-29T22:51:23.750Z,48.15
2018-11-29T22:53:53.203Z,54.40
2018-11-29T22:56:22.358Z,52.43
2018-11-29T22:58:52.098Z,46.85
2018-11-29T23:01:27.195Z,53.80
2018-11-29T23:03:55.999Z,46.80
2018-11-29T23:06:25.460Z,48.00
2018-11-29T23:08:54.764Z,46.05
2018-11-29T23:11:22.823Z,47.78
2018-11-29T23:13:51.351Z,51.37
2018-11-29T23:16:21.485Z,53.98
2018-11-29T23:18:50.302Z,48.58
2018-11-29T23:21:20.051Z,46.95
2018-11-29T23:23:48.835Z,44.05
2018-11-29T23:26:16.956Z,46.68
2018-11-29T23:28:47.522Z,57.50
2018-11-29T23:31:15.669Z,47.43
2018-11-29T23:33:44.462Z,50.88
2018-11-29T23:36:15.363Z,51.50
2018-11-29T23:38:43.391Z,48.25
2018-11-29T23:41:13.029Z,45.08
2018-11-29T23:43:41.765Z,56.75
2018-11-29T23:46:10.061Z,48.00
2018-11-29T23:48:39.413Z,47.80
2018-11-29T23:51:07.413Z,48.92
2018-11-29T23:53:36.966Z,50.43
2018-11-29T23:56:06.817Z,48.63
2018-11-29T23:58:35.942Z,44.30
